KLOZ/LOZ METAR and TAF weather

Enter ICAO airport designator
Station Type Date Time Source
KLOZ METAR 2019/12/08 16:53 UTC NOAA

KLOZ 081653Z AUTO 19011G16KT 10SM BKN055 12/04 A3021 RMK AO2 SLP232 T01220039


Station Type Date Time Source
KLOZ Decoded METAR 2019/12/08 16:53 UTC NOAA

LONDON-CORBIN AIRPORT, KY, United States (KLOZ) 37-05N 084-04W 362M
Dec 08, 2019 - 11:53 AM EST / 2019.12.08 1653 UTC
Wind: from the S (190 degrees) at 13 MPH (11 KT) gusting to 18 MPH (16 KT):0
Visibility: 10 mile(s):0
Sky conditions: mostly cloudy
Temperature: 54.0 F (12.2 C)
Dew Point: 39.0 F (3.9 C)
Relative Humidity: 56%
Pressure (altimeter): 30.21 in. Hg (1023 hPa)
ob: KLOZ 081653Z AUTO 19011G16KT 10SM BKN055 12/04 A3021 RMK AO2 SLP232 T01220039
cycle: 17

Station Type Date Time Source
KLOZ TAF 2019/12/08 12:22 UTC NOAA

TAF KLOZ 081120Z 0812/0912 18005KT P6SM SCT250
FM081800 18010G18KT P6SM BKN100
FM090500 17008KT P6SM VCSH OVC050 WS020/19040KT
FM091100 18009KT P6SM OVC045 WS020/20045KT

Example: see airport list